sensor_id;sensor_type;location;lat;lon;timestamp;pressure;altitude;pressure_sealevel;temperature;humidity
3206;BME280;1615;53.602;11.418;2022-09-03T00:00:03;101517.78;;;17.64;100.00
3206;BME280;1615;53.602;11.418;2022-09-03T00:02:39;101506.69;;;17.64;100.00
3206;BME280;1615;53.602;11.418;2022-09-03T00:05:16;101509.97;;;17.66;100.00
3206;BME280;1615;53.602;11.418;2022-09-03T00:08:05;101498.34;;;17.64;100.00
3206;BME280;1615;53.602;11.418;2022-09-03T00:10:50;101491.50;;;17.61;100.00
3206;BME280;1615;53.602;11.418;2022-09-03T00:13:34;101500.34;;;17.63;100.00
3206;BME280;1615;53.602;11.418;2022-09-03T00:16:02;101499.34;;;17.59;100.00
3206;BME280;1615;53.602;11.418;2022-09-03T00:18:40;101507.81;;;17.54;100.00
3206;BME280;1615;53.602;11.418;2022-09-03T00:21:10;101517.44;;;17.57;100.00
3206;BME280;1615;53.602;11.418;2022-09-03T00:23:39;101501.78;;;17.52;100.00
3206;BME280;1615;53.602;11.418;2022-09-03T00:28:58;101501.09;;;17.47;100.00
3206;BME280;1615;53.602;11.418;2022-09-03T00:31:31;101501.09;;;17.47;100.00
3206;BME280;1615;53.602;11.418;2022-09-03T00:34:08;101498.16;;;17.52;100.00
3206;BME280;1615;53.602;11.418;2022-09-03T00:36:39;101492.47;;;17.48;100.00
3206;BME280;1615;53.602;11.418;2022-09-03T00:39:14;101496.03;;;17.49;100.00
3206;BME280;1615;53.602;11.418;2022-09-03T00:41:51;101391.91;;;16.78;100.00
3206;BME280;1615;53.602;11.418;2022-09-03T00:50:16;101492.53;;;17.35;100.00
3206;BME280;1615;53.602;11.418;2022-09-03T00:58:19;101497.53;;;17.24;100.00
3206;BME280;1615;53.602;11.418;2022-09-03T01:00:51;101487.91;;;17.22;100.00
3206;BME280;1615;53.602;11.418;2022-09-03T01:03:49;101492.81;;;17.25;100.00
3206;BME280;1615;53.602;11.418;2022-09-03T01:12:03;101491.38;;;17.27;100.00
3206;BME280;1615;53.602;11.418;2022-09-03T01:17:31;101484.81;;;17.23;100.00
3206;BME280;1615;53.602;11.418;2022-09-03T01:20:11;101482.56;;;17.25;100.00
3206;BME280;1615;53.602;11.418;2022-09-03T01:28:22;101480.75;;;17.21;100.00
3206;BME280;1615;53.602;11.418;2022-09-03T01:33:50;101477.31;;;17.15;100.00
3206;BME280;1615;53.602;11.418;2022-09-03T01:48:29;101443.97;;;16.98;100.00
3206;BME280;1615;53.602;11.418;2022-09-03T01:51:10;101481.88;;;17.20;100.00
3206;BME280;1615;53.602;11.418;2022-09-03T01:56:39;101482.84;;;17.15;100.00
3206;BME280;1615;53.602;11.418;2022-09-03T02:01:54;101467.97;;;17.03;100.00
3206;BME280;1615;53.602;11.418;2022-09-03T02:04:25;101431.50;;;16.79;100.00
3206;BME280;1615;53.602;11.418;2022-09-03T02:06:52;101489.19;;;17.16;100.00
3206;BME280;1615;53.602;11.418;2022-09-03T02:09:18;101472.84;;;17.06;100.00
3206;BME280;1615;53.602;11.418;2022-09-03T02:11:48;101493.09;;;17.15;100.00
3206;BME280;1615;53.602;11.418;2022-09-03T02:14:15;101488.53;;;17.10;100.00
3206;BME280;1615;53.602;11.418;2022-09-03T02:16:40;101487.22;;;17.08;100.00
3206;BME280;1615;53.602;11.418;2022-09-03T02:19:11;101514.91;;;17.08;100.00
3206;BME280;1615;53.602;11.418;2022-09-03T02:21:39;101441.59;;;16.75;100.00
3206;BME280;1615;53.602;11.418;2022-09-03T02:24:08;101490.91;;;17.03;100.00
3206;BME280;1615;53.602;11.418;2022-09-03T02:26:34;101401.75;;;16.54;100.00
3206;BME280;1615;53.602;11.418;2022-09-03T02:29:00;101483.47;;;17.12;100.00
3206;BME280;1615;53.602;11.418;2022-09-03T02:31:27;101487.56;;;17.15;100.00
3206;BME280;1615;53.602;11.418;2022-09-03T02:33:53;101490.19;;;17.20;100.00
3206;BME280;1615;53.602;11.418;2022-09-03T02:36:25;101380.25;;;16.59;100.00
3206;BME280;1615;53.602;11.418;2022-09-03T02:38:51;101476.19;;;17.25;100.00
3206;BME280;1615;53.602;11.418;2022-09-03T02:41:17;101473.75;;;17.23;100.00
3206;BME280;1615;53.602;11.418;2022-09-03T02:43:52;101480.09;;;17.24;100.00
3206;BME280;1615;53.602;11.418;2022-09-03T02:46:22;101476.66;;;17.18;100.00
3206;BME280;1615;53.602;11.418;2022-09-03T02:48:51;101480.75;;;17.21;100.00
3206;BME280;1615;53.602;11.418;2022-09-03T02:51:17;101486.94;;;17.18;100.00
3206;BME280;1615;53.602;11.418;2022-09-03T02:53:42;101478.28;;;17.19;100.00
3206;BME280;1615;53.602;11.418;2022-09-03T02:56:08;101491.66;;;17.17;100.00
3206;BME280;1615;53.602;11.418;2022-09-03T02:58:33;101491.66;;;17.17;100.00
3206;BME280;1615;53.602;11.418;2022-09-03T03:00:59;101380.03;;;16.47;100.00
3206;BME280;1615;53.602;11.418;2022-09-03T03:03:24;101482.69;;;17.12;100.00
3206;BME280;1615;53.602;11.418;2022-09-03T03:05:54;101485.75;;;17.10;100.00
3206;BME280;1615;53.602;11.418;2022-09-03T03:08:24;101480.03;;;17.07;100.00
3206;BME280;1615;53.602;11.418;2022-09-03T03:10:54;101487.84;;;17.05;100.00
3206;BME280;1615;53.602;11.418;2022-09-03T03:13:25;101487.66;;;17.01;100.00
3206;BME280;1615;53.602;11.418;2022-09-03T03:15:55;101484.72;;;16.98;100.00
3206;BME280;1615;53.602;11.418;2022-09-03T03:18:20;101481.94;;;16.98;100.00
3206;BME280;1615;53.602;11.418;2022-09-03T03:20:46;101487.50;;;16.98;100.00
3206;BME280;1615;53.602;11.418;2022-09-03T03:23:12;101488.63;;;16.97;100.00
3206;BME280;1615;53.602;11.418;2022-09-03T03:25:38;101484.22;;;16.96;100.00
3206;BME280;1615;53.602;11.418;2022-09-03T03:28:04;101483.41;;;16.95;100.00
3206;BME280;1615;53.602;11.418;2022-09-03T03:30:30;101490.38;;;16.93;100.00
3206;BME280;1615;53.602;11.418;2022-09-03T03:32:56;101484.38;;;16.91;100.00
3206;BME280;1615;53.602;11.418;2022-09-03T03:35:22;101486.13;;;16.87;100.00
3206;BME280;1615;53.602;11.418;2022-09-03T03:37:48;101486.75;;;16.84;100.00
3206;BME280;1615;53.602;11.418;2022-09-03T03:40:13;101497.81;;;16.84;100.00
3206;BME280;1615;53.602;11.418;2022-09-03T03:42:39;101490.78;;;16.78;100.00
3206;BME280;1615;53.602;11.418;2022-09-03T03:45:05;101487.88;;;16.83;100.00
3206;BME280;1615;53.602;11.418;2022-09-03T03:47:32;101487.72;;;16.79;100.00
3206;BME280;1615;53.602;11.418;2022-09-03T03:49:58;101487.22;;;16.77;100.00
3206;BME280;1615;53.602;11.418;2022-09-03T03:52:25;101486.53;;;16.72;100.00
3206;BME280;1615;53.602;11.418;2022-09-03T03:54:51;101491.69;;;16.65;100.00
3206;BME280;1615;53.602;11.418;2022-09-03T03:57:17;101486.16;;;16.65;100.00
3206;BME280;1615;53.602;11.418;2022-09-03T03:59:44;101489.53;;;16.62;100.00
3206;BME280;1615;53.602;11.418;2022-09-03T04:02:09;101503.50;;;16.57;100.00
3206;BME280;1615;53.602;11.418;2022-09-03T04:04:34;101497.78;;;16.53;100.00
3206;BME280;1615;53.602;11.418;2022-09-03T04:06:59;101437.25;;;16.16;100.00
3206;BME280;1615;53.602;11.418;2022-09-03T04:09:25;101491.44;;;16.53;100.00
3206;BME280;1615;53.602;11.418;2022-09-03T04:11:50;101491.91;;;16.46;100.00
3206;BME280;1615;53.602;11.418;2022-09-03T04:14:16;101490.13;;;16.37;100.00
3206;BME280;1615;53.602;11.418;2022-09-03T04:16:44;101489.03;;;16.38;100.00
3206;BME280;1615;53.602;11.418;2022-09-03T04:19:11;101497.03;;;16.39;100.00
3206;BME280;1615;53.602;11.418;2022-09-03T04:21:36;101494.34;;;16.34;100.00
3206;BME280;1615;53.602;11.418;2022-09-03T04:24:03;101455.34;;;16.00;100.00
3206;BME280;1615;53.602;11.418;2022-09-03T04:26:30;101497.19;;;16.21;100.00
3206;BME280;1615;53.602;11.418;2022-09-03T04:28:56;101438.81;;;15.87;100.00
3206;BME280;1615;53.602;11.418;2022-09-03T04:31:22;101495.66;;;16.15;100.00
3206;BME280;1615;53.602;11.418;2022-09-03T04:33:47;101499.91;;;15.99;100.00
3206;BME280;1615;53.602;11.418;2022-09-03T04:36:18;101491.63;;;15.99;100.00
3206;BME280;1615;53.602;11.418;2022-09-03T04:38:46;101489.59;;;15.91;100.00
3206;BME280;1615;53.602;11.418;2022-09-03T04:41:15;101478.75;;;15.81;100.00
3206;BME280;1615;53.602;11.418;2022-09-03T04:43:41;101371.19;;;15.08;100.00
3206;BME280;1615;53.602;11.418;2022-09-03T04:46:08;101502.06;;;16.02;100.00
3206;BME280;1615;53.602;11.418;2022-09-03T04:48:34;101495.50;;;15.98;100.00
3206;BME280;1615;53.602;11.418;2022-09-03T04:51:27;101497.97;;;15.99;100.00
3206;BME280;1615;53.602;11.418;2022-09-03T04:53:55;101505.56;;;15.94;100.00
3206;BME280;1615;53.602;11.418;2022-09-03T04:56:24;101500.56;;;15.96;100.00
3206;BME280;1615;53.602;11.418;2022-09-03T04:59:00;101503.81;;;15.98;100.00
3206;BME280;1615;53.602;11.418;2022-09-03T05:01:28;101502.19;;;15.97;100.00
3206;BME280;1615;53.602;11.418;2022-09-03T05:03:55;101453.59;;;15.69;100.00
3206;BME280;1615;53.602;11.418;2022-09-03T05:06:20;101515.00;;;15.93;100.00
3206;BME280;1615;53.602;11.418;2022-09-03T05:08:49;101515.00;;;15.93;100.00
3206;BME280;1615;53.602;11.418;2022-09-03T05:11:15;101516.72;;;15.89;100.00
3206;BME280;1615;53.602;11.418;2022-09-03T05:13:41;101380.78;;;15.11;100.00
3206;BME280;1615;53.602;11.418;2022-09-03T05:16:09;101489.94;;;15.76;100.00
3206;BME280;1615;53.602;11.418;2022-09-03T05:18:36;101531.47;;;15.98;100.00
3206;BME280;1615;53.602;11.418;2022-09-03T05:21:07;101523.19;;;15.98;100.00
3206;BME280;1615;53.602;11.418;2022-09-03T05:23:42;101526.47;;;16.00;100.00
3206;BME280;1615;53.602;11.418;2022-09-03T05:26:10;101523.19;;;15.98;100.00
3206;BME280;1615;53.602;11.418;2022-09-03T05:28:37;101422.91;;;15.43;100.00
3206;BME280;1615;53.602;11.418;2022-09-03T05:31:14;101521.81;;;16.09;100.00
3206;BME280;1615;53.602;11.418;2022-09-03T05:33:45;101458.31;;;15.55;100.00
3206;BME280;1615;53.602;11.418;2022-09-03T05:36:16;101517.31;;;16.13;100.00
3206;BME280;1615;53.602;11.418;2022-09-03T05:38:43;101502.22;;;16.19;100.00
3206;BME280;1615;53.602;11.418;2022-09-03T05:41:11;101476.22;;;16.06;100.00
3206;BME280;1615;53.602;11.418;2022-09-03T05:43:36;101508.19;;;16.34;100.00
3206;BME280;1615;53.602;11.418;2022-09-03T05:46:04;101516.09;;;16.41;100.00
3206;BME280;1615;53.602;11.418;2022-09-03T05:48:31;101510.06;;;16.39;100.00
3206;BME280;1615;53.602;11.418;2022-09-03T05:50:59;101517.13;;;16.45;100.00
3206;BME280;1615;53.602;11.418;2022-09-03T05:53:25;101511.59;;;16.45;100.00
3206;BME280;1615;53.602;11.418;2022-09-03T05:55:57;101516.50;;;16.48;100.00
3206;BME280;1615;53.602;11.418;2022-09-03T05:58:23;101492.31;;;16.40;100.00
3206;BME280;1615;53.602;11.418;2022-09-03T06:00:50;101516.88;;;16.55;100.00
3206;BME280;1615;53.602;11.418;2022-09-03T06:03:15;101521.75;;;16.58;100.00
3206;BME280;1615;53.602;11.418;2022-09-03T06:05:49;101408.25;;;15.92;100.00
3206;BME280;1615;53.602;11.418;2022-09-03T06:08:14;101521.75;;;16.58;100.00
3206;BME280;1615;53.602;11.418;2022-09-03T06:10:40;101523.41;;;16.59;100.00
3206;BME280;1615;53.602;11.418;2022-09-03T06:13:05;101523.66;;;16.71;100.00
3206;BME280;1615;53.602;11.418;2022-09-03T06:15:30;101519.00;;;16.80;100.00
3206;BME280;1615;53.602;11.418;2022-09-03T06:17:56;101513.81;;;16.87;100.00
3206;BME280;1615;53.602;11.418;2022-09-03T06:20:22;101409.16;;;16.23;100.00
3206;BME280;1615;53.602;11.418;2022-09-03T06:22:53;101510.91;;;16.92;100.00
3206;BME280;1615;53.602;11.418;2022-09-03T06:25:19;101515.69;;;17.00;100.00
3206;BME280;1615;53.602;11.418;2022-09-03T06:27:45;101517.19;;;17.06;100.00
3206;BME280;1615;53.602;11.418;2022-09-03T06:30:12;101510.38;;;17.12;100.00
3206;BME280;1615;53.602;11.418;2022-09-03T06:32:47;101506.09;;;17.06;100.00
3206;BME280;1615;53.602;11.418;2022-09-03T06:35:14;101513.81;;;17.17;100.00
3206;BME280;1615;53.602;11.418;2022-09-03T06:37:40;101511.59;;;17.28;100.00
3206;BME280;1615;53.602;11.418;2022-09-03T06:40:07;101465.31;;;16.98;100.00
3206;BME280;1615;53.602;11.418;2022-09-03T06:42:39;101505.25;;;17.36;100.00
3206;BME280;1615;53.602;11.418;2022-09-03T06:45:06;101510.69;;;17.41;100.00
3206;BME280;1615;53.602;11.418;2022-09-03T06:47:32;101516.09;;;17.46;100.00
3206;BME280;1615;53.602;11.418;2022-09-03T06:49:58;101515.63;;;17.52;100.00
3206;BME280;1615;53.602;11.418;2022-09-03T06:52:24;101511.88;;;17.57;100.00
3206;BME280;1615;53.602;11.418;2022-09-03T06:54:49;101521.69;;;17.63;100.00
3206;BME280;1615;53.602;11.418;2022-09-03T06:57:15;101514.38;;;17.75;100.00
3206;BME280;1615;53.602;11.418;2022-09-03T06:59:40;101518.63;;;17.81;100.00
3206;BME280;1615;53.602;11.418;2022-09-03T07:02:07;101516.03;;;17.85;100.00
3206;BME280;1615;53.602;11.418;2022-09-03T07:04:33;101516.03;;;17.93;100.00
3206;BME280;1615;53.602;11.418;2022-09-03T07:06:58;101517.88;;;17.98;100.00
3206;BME280;1615;53.602;11.418;2022-09-03T07:09:25;101525.38;;;18.06;100.00
3206;BME280;1615;53.602;11.418;2022-09-03T07:11:51;101483.25;;;17.95;100.00
3206;BME280;1615;53.602;11.418;2022-09-03T07:14:18;101522.59;;;18.23;100.00
3206;BME280;1615;53.602;11.418;2022-09-03T07:16:43;101520.03;;;18.43;100.00
3206;BME280;1615;53.602;11.418;2022-09-03T07:19:10;101520.34;;;18.50;100.00
3206;BME280;1615;53.602;11.418;2022-09-03T07:21:38;101513.03;;;18.46;100.00
3206;BME280;1615;53.602;11.418;2022-09-03T07:24:07;101520.53;;;18.54;100.00
3206;BME280;1615;53.602;11.418;2022-09-03T07:26:36;101507.44;;;18.63;100.00
3206;BME280;1615;53.602;11.418;2022-09-03T07:29:02;101502.97;;;18.96;100.00
3206;BME280;1615;53.602;11.418;2022-09-03T07:31:33;101508.78;;;19.20;100.00
3206;BME280;1615;53.602;11.418;2022-09-03T07:34:02;101513.78;;;19.35;100.00
3206;BME280;1615;53.602;11.418;2022-09-03T07:36:35;101513.75;;;19.43;100.00
3206;BME280;1615;53.602;11.418;2022-09-03T07:39:03;101506.00;;;19.57;100.00
3206;BME280;1615;53.602;11.418;2022-09-03T07:41:28;101523.47;;;19.66;99.89
3206;BME280;1615;53.602;11.418;2022-09-03T07:43:56;101516.28;;;19.65;99.40
3206;BME280;1615;53.602;11.418;2022-09-03T07:46:24;101515.94;;;19.67;99.64
3206;BME280;1615;53.602;11.418;2022-09-03T07:48:53;101517.19;;;19.78;98.56
3206;BME280;1615;53.602;11.418;2022-09-03T07:51:20;101519.75;;;19.83;98.74
3206;BME280;1615;53.602;11.418;2022-09-03T07:53:47;101517.38;;;19.73;97.59
3206;BME280;1615;53.602;11.418;2022-09-03T07:56:13;101517.59;;;19.68;97.99
3206;BME280;1615;53.602;11.418;2022-09-03T07:58:40;101520.06;;;19.61;96.96
3206;BME280;1615;53.602;11.418;2022-09-03T08:01:17;101514.81;;;19.68;98.90
3206;BME280;1615;53.602;11.418;2022-09-03T08:03:48;101524.34;;;19.87;98.71
3206;BME280;1615;53.602;11.418;2022-09-03T08:06:15;101524.75;;;19.98;96.22
3206;BME280;1615;53.602;11.418;2022-09-03T08:08:41;101476.13;;;19.75;96.68
3206;BME280;1615;53.602;11.418;2022-09-03T08:11:11;101520.81;;;20.28;96.25
3206;BME280;1615;53.602;11.418;2022-09-03T08:13:37;101521.31;;;20.42;94.37
3206;BME280;1615;53.602;11.418;2022-09-03T08:16:03;101473.44;;;20.07;92.27
3206;BME280;1615;53.602;11.418;2022-09-03T08:18:29;101520.44;;;20.50;91.27
3206;BME280;1615;53.602;11.418;2022-09-03T08:21:05;101523.28;;;20.62;91.36
3206;BME280;1615;53.602;11.418;2022-09-03T08:23:32;101512.63;;;20.64;91.94
3206;BME280;1615;53.602;11.418;2022-09-03T08:26:00;101518.03;;;20.81;90.58
3206;BME280;1615;53.602;11.418;2022-09-03T08:28:27;101525.91;;;20.79;89.79
3206;BME280;1615;53.602;11.418;2022-09-03T08:30:53;101491.84;;;20.61;89.43
3206;BME280;1615;53.602;11.418;2022-09-03T08:33:19;101519.41;;;20.75;89.45
3206;BME280;1615;53.602;11.418;2022-09-03T08:36:04;101507.78;;;20.85;89.27
3206;BME280;1615;53.602;11.418;2022-09-03T08:38:32;101518.59;;;21.07;88.53
3206;BME280;1615;53.602;11.418;2022-09-03T08:41:14;101519.56;;;21.23;88.27
3206;BME280;1615;53.602;11.418;2022-09-03T08:44:08;101512.13;;;21.39;87.71
3206;BME280;1615;53.602;11.418;2022-09-03T08:49:50;101476.06;;;21.22;84.45
3206;BME280;1615;53.602;11.418;2022-09-03T08:52:43;101517.72;;;21.63;82.27
3206;BME280;1615;53.602;11.418;2022-09-03T08:55:21;101426.34;;;21.12;84.07
3206;BME280;1615;53.602;11.418;2022-09-03T09:00:19;101517.28;;;21.73;77.82
3206;BME280;1615;53.602;11.418;2022-09-03T09:03:23;101507.06;;;21.77;76.46
3206;BME280;1615;53.602;11.418;2022-09-03T09:09:16;101515.38;;;21.65;75.91
3206;BME280;1615;53.602;11.418;2022-09-03T09:11:45;101503.31;;;21.61;74.51
3206;BME280;1615;53.602;11.418;2022-09-03T09:14:19;101495.75;;;21.49;73.92
3206;BME280;1615;53.602;11.418;2022-09-03T09:19:30;101505.84;;;21.54;76.44
3206;BME280;1615;53.602;11.418;2022-09-03T09:22:11;101490.25;;;21.53;76.00
3206;BME280;1615;53.602;11.418;2022-09-03T09:24:44;101495.41;;;21.75;74.82
3206;BME280;1615;53.602;11.418;2022-09-03T09:27:14;101493.31;;;21.60;72.16
3206;BME280;1615;53.602;11.418;2022-09-03T09:29:45;101487.03;;;21.75;73.18
3206;BME280;1615;53.602;11.418;2022-09-03T09:32:13;101476.09;;;21.70;72.87
3206;BME280;1615;53.602;11.418;2022-09-03T09:34:41;101488.41;;;21.93;71.95
3206;BME280;1615;53.602;11.418;2022-09-03T09:37:10;101476.97;;;22.10;71.07
3206;BME280;1615;53.602;11.418;2022-09-03T09:39:36;101390.72;;;21.57;68.28
3206;BME280;1615;53.602;11.418;2022-09-03T09:42:04;101476.47;;;22.20;67.21
3206;BME280;1615;53.602;11.418;2022-09-03T09:44:34;101453.50;;;21.99;66.17
3206;BME280;1615;53.602;11.418;2022-09-03T09:47:05;101473.72;;;22.08;64.33
3206;BME280;1615;53.602;11.418;2022-09-03T09:49:37;101478.78;;;22.18;63.90
3206;BME280;1615;53.602;11.418;2022-09-03T09:52:10;101479.50;;;22.15;62.12
3206;BME280;1615;53.602;11.418;2022-09-03T09:54:37;101479.38;;;22.23;63.37
3206;BME280;1615;53.602;11.418;2022-09-03T09:57:12;101463.88;;;22.26;63.03
3206;BME280;1615;53.602;11.418;2022-09-03T09:59:40;101468.75;;;22.29;63.48
3206;BME280;1615;53.602;11.418;2022-09-03T10:02:18;101463.97;;;22.29;63.24
3206;BME280;1615;53.602;11.418;2022-09-03T10:04:44;101465.25;;;22.32;63.76
3206;BME280;1615;53.602;11.418;2022-09-03T10:10:06;101453.19;;;22.55;61.79
3206;BME280;1615;53.602;11.418;2022-09-03T10:12:38;101461.59;;;22.71;60.99
3206;BME280;1615;53.602;11.418;2022-09-03T10:15:26;101448.28;;;22.80;60.20
3206;BME280;1615;53.602;11.418;2022-09-03T10:18:14;101455.47;;;22.65;60.52
3206;BME280;1615;53.602;11.418;2022-09-03T10:20:52;101339.84;;;21.87;60.22
3206;BME280;1615;53.602;11.418;2022-09-03T10:23:26;101448.97;;;22.61;60.44
3206;BME280;1615;53.602;11.418;2022-09-03T10:26:06;101370.75;;;22.22;61.00
3206;BME280;1615;53.602;11.418;2022-09-03T10:28:35;101419.03;;;22.62;55.01
3206;BME280;1615;53.602;11.418;2022-09-03T10:33:58;101443.25;;;23.01;54.61
3206;BME280;1615;53.602;11.418;2022-09-03T10:36:39;101439.41;;;23.21;55.01
3206;BME280;1615;53.602;11.418;2022-09-03T10:39:14;101438.75;;;23.43;54.32
3206;BME280;1615;53.602;11.418;2022-09-03T10:44:45;101388.47;;;23.00;52.25
3206;BME280;1615;53.602;11.418;2022-09-03T10:50:27;101422.66;;;23.40;49.41
3206;BME280;1615;53.602;11.418;2022-09-03T10:53:02;101433.38;;;23.69;50.71
3206;BME280;1615;53.602;11.418;2022-09-03T11:03:45;101411.75;;;24.04;45.93
3206;BME280;1615;53.602;11.418;2022-09-03T11:06:22;101432.69;;;24.10;45.39
3206;BME280;1615;53.602;11.418;2022-09-03T11:09:00;101366.94;;;24.04;45.99
3206;BME280;1615;53.602;11.418;2022-09-03T11:11:37;101410.91;;;24.00;45.99
3206;BME280;1615;53.602;11.418;2022-09-03T11:14:07;101311.94;;;23.23;47.29
3206;BME280;1615;53.602;11.418;2022-09-03T11:16:53;101418.03;;;23.63;46.76
3206;BME280;1615;53.602;11.418;2022-09-03T11:19:27;101390.97;;;23.51;47.88
3206;BME280;1615;53.602;11.418;2022-09-03T11:21:56;101356.50;;;23.32;48.13
3206;BME280;1615;53.602;11.418;2022-09-03T11:24:25;101393.59;;;23.79;48.89
3206;BME280;1615;53.602;11.418;2022-09-03T11:27:28;101412.72;;;23.92;46.65
3206;BME280;1615;53.602;11.418;2022-09-03T11:32:47;101404.13;;;23.85;44.06
3206;BME280;1615;53.602;11.418;2022-09-03T11:35:39;101414.53;;;23.85;44.88
3206;BME280;1615;53.602;11.418;2022-09-03T11:43:33;101411.31;;;23.67;44.63
3206;BME280;1615;53.602;11.418;2022-09-03T11:48:36;101371.84;;;23.38;43.68
3206;BME280;1615;53.602;11.418;2022-09-03T11:51:02;101398.25;;;23.56;44.14
3206;BME280;1615;53.602;11.418;2022-09-03T11:53:35;101291.25;;;22.78;45.24
3206;BME280;1615;53.602;11.418;2022-09-03T11:56:16;101395.91;;;23.58;44.48
3206;BME280;1615;53.602;11.418;2022-09-03T11:58:42;101391.31;;;23.50;44.12
3206;BME280;1615;53.602;11.418;2022-09-03T12:01:13;101273.09;;;22.87;45.55
3206;BME280;1615;53.602;11.418;2022-09-03T12:04:01;101379.50;;;23.75;45.17
3206;BME280;1615;53.602;11.418;2022-09-03T12:07:06;101378.53;;;23.87;44.96
3206;BME280;1615;53.602;11.418;2022-09-03T12:09:53;101377.50;;;23.76;45.32
3206;BME280;1615;53.602;11.418;2022-09-03T12:18:22;101377.28;;;24.00;45.42
3206;BME280;1615;53.602;11.418;2022-09-03T12:21:01;101371.47;;;24.31;43.98
3206;BME280;1615;53.602;11.418;2022-09-03T12:23:47;101375.56;;;24.56;43.62
3206;BME280;1615;53.602;11.418;2022-09-03T12:26:24;101385.47;;;24.50;42.43
3206;BME280;1615;53.602;11.418;2022-09-03T12:28:54;101371.16;;;24.55;42.33
3206;BME280;1615;53.602;11.418;2022-09-03T12:34:00;101360.53;;;24.64;42.07
3206;BME280;1615;53.602;11.418;2022-09-03T12:36:40;101333.34;;;24.45;42.19
3206;BME280;1615;53.602;11.418;2022-09-03T12:39:16;101365.06;;;24.72;42.31
3206;BME280;1615;53.602;11.418;2022-09-03T12:41:57;101366.69;;;24.73;42.23
3206;BME280;1615;53.602;11.418;2022-09-03T12:44:31;101363.56;;;24.78;42.80
3206;BME280;1615;53.602;11.418;2022-09-03T12:47:16;101363.69;;;24.85;41.79
3206;BME280;1615;53.602;11.418;2022-09-03T12:49:44;101360.84;;;24.59;41.57
3206;BME280;1615;53.602;11.418;2022-09-03T12:54:58;101407.50;;;24.29;41.79
3206;BME280;1615;53.602;11.418;2022-09-03T12:57:40;101295.09;;;23.77;42.90
3206;BME280;1615;53.602;11.418;2022-09-03T13:00:09;101315.00;;;23.72;43.80
3206;BME280;1615;53.602;11.418;2022-09-03T13:02:52;101373.72;;;24.03;43.76
3206;BME280;1615;53.602;11.418;2022-09-03T13:05:25;101367.09;;;24.11;44.44
3206;BME280;1615;53.602;11.418;2022-09-03T13:07:55;101361.75;;;24.25;43.91
3206;BME280;1615;53.602;11.418;2022-09-03T13:10:32;101346.66;;;24.29;43.75
3206;BME280;1615;53.602;11.418;2022-09-03T13:13:00;101360.31;;;24.34;43.61
3206;BME280;1615;53.602;11.418;2022-09-03T13:15:28;101345.22;;;24.39;43.04
3206;BME280;1615;53.602;11.418;2022-09-03T13:20:37;101344.94;;;24.66;42.84
3206;BME280;1615;53.602;11.418;2022-09-03T13:23:34;101344.94;;;24.66;43.87
3206;BME280;1615;53.602;11.418;2022-09-03T13:26:13;101344.03;;;24.59;44.35
3206;BME280;1615;53.602;11.418;2022-09-03T13:28:52;101340.28;;;24.32;44.14
3206;BME280;1615;53.602;11.418;2022-09-03T13:31:39;101354.41;;;24.17;45.83
3206;BME280;1615;53.602;11.418;2022-09-03T13:34:28;101289.44;;;23.73;46.74
3206;BME280;1615;53.602;11.418;2022-09-03T13:40:18;101344.38;;;24.16;46.25
3206;BME280;1615;53.602;11.418;2022-09-03T13:42:54;101343.72;;;24.03;47.08
3206;BME280;1615;53.602;11.418;2022-09-03T13:45:40;101348.78;;;23.98;46.73
3206;BME280;1615;53.602;11.418;2022-09-03T13:48:31;101344.25;;;23.90;47.42
3206;BME280;1615;53.602;11.418;2022-09-03T13:51:28;101271.97;;;23.42;47.20
3206;BME280;1615;53.602;11.418;2022-09-03T13:54:12;101258.09;;;23.30;47.73
3206;BME280;1615;53.602;11.418;2022-09-03T13:57:04;101338.84;;;23.81;46.24
3206;BME280;1615;53.602;11.418;2022-09-03T13:59:44;101350.53;;;23.68;47.14
3206;BME280;1615;53.602;11.418;2022-09-03T14:05:03;101332.25;;;23.55;49.08
3206;BME280;1615;53.602;11.418;2022-09-03T14:07:57;101334.91;;;23.67;49.11
3206;BME280;1615;53.602;11.418;2022-09-03T14:10:55;101331.00;;;23.71;47.59
3206;BME280;1615;53.602;11.418;2022-09-03T14:13:42;101330.84;;;23.64;47.50
3206;BME280;1615;53.602;11.418;2022-09-03T14:19:16;101323.88;;;24.12;49.51
3206;BME280;1615;53.602;11.418;2022-09-03T14:21:53;101289.06;;;24.13;46.63
3206;BME280;1615;53.602;11.418;2022-09-03T14:27:06;101321.41;;;24.52;45.46
3206;BME280;1615;53.602;11.418;2022-09-03T14:29:33;101315.81;;;24.52;45.54
3206;BME280;1615;53.602;11.418;2022-09-03T14:34:56;101317.59;;;24.60;44.92
3206;BME280;1615;53.602;11.418;2022-09-03T14:42:46;101310.28;;;24.78;42.79
3206;BME280;1615;53.602;11.418;2022-09-03T14:45:42;101314.47;;;24.65;43.42
3206;BME280;1615;53.602;11.418;2022-09-03T14:52:27;101297.41;;;24.54;43.49
3206;BME280;1615;53.602;11.418;2022-09-03T14:57:26;101314.78;;;24.60;44.45
3206;BME280;1615;53.602;11.418;2022-09-03T15:00:26;101318.06;;;24.43;45.32
3206;BME280;1615;53.602;11.418;2022-09-03T15:03:21;101309.38;;;24.29;45.52
3206;BME280;1615;53.602;11.418;2022-09-03T15:06:09;101316.72;;;24.14;45.75
3206;BME280;1615;53.602;11.418;2022-09-03T15:08:39;101319.88;;;24.13;44.79
3206;BME280;1615;53.602;11.418;2022-09-03T15:11:19;101316.50;;;24.04;43.68
3206;BME280;1615;53.602;11.418;2022-09-03T15:13:53;101320.63;;;24.10;44.12
3206;BME280;1615;53.602;11.418;2022-09-03T15:22:56;101316.84;;;23.83;44.89
3206;BME280;1615;53.602;11.418;2022-09-03T15:28:12;101320.06;;;23.28;46.42
3206;BME280;1615;53.602;11.418;2022-09-03T15:30:52;101337.72;;;23.17;46.47
3206;BME280;1615;53.602;11.418;2022-09-03T15:33:32;101290.09;;;22.98;46.47
3206;BME280;1615;53.602;11.418;2022-09-03T15:36:20;101321.94;;;23.09;46.25
3206;BME280;1615;53.602;11.418;2022-09-03T15:38:55;101319.97;;;23.09;47.14
3206;BME280;1615;53.602;11.418;2022-09-03T15:44:11;101308.78;;;23.09;48.35